Time;durP1;ratioP1;P1;durP2;ratioP2;P2;SDS_P1;SDS_P2;PMS_P1;PMS_P2;Temp;Humidity;BMP_temperature;BMP_pressure;BME280_temperature;BME280_humidity;BME280_pressure;Samples;Min_cycle;Max_cycle;Signal;HPM_P1;HPM_P2
2023/07/22 00:01:19;;;;;;;8.10;4.43;;;;;;;;;;4993705;28;20034;-73
2023/07/22 00:03:45;;;;;;;9.20;4.18;;;;;;;;;;4987450;28;20035;-73
2023/07/22 00:06:11;;;;;;;11.30;4.60;;;;;;;;;;4989883;28;20549;-73
2023/07/22 00:08:38;;;;;;;16.58;4.53;;;;;;;;;;4990531;28;20033;-73
2023/07/22 00:11:04;;;;;;;7.97;4.00;;;;;;;;;;4993024;28;20096;-73
2023/07/22 00:13:31;;;;;;;12.23;4.88;;;;;;;;;;4986061;28;20039;-74
2023/07/22 00:15:59;;;;;;;8.32;4.55;;;;;;;;;;4990613;28;20506;-73
2023/07/22 00:18:26;;;;;;;8.18;3.85;;;;;;;;;;4988078;28;20092;-73
2023/07/22 00:20:53;;;;;;;10.95;5.55;;;;;;;;;;4990095;28;20399;-72
2023/07/22 00:23:19;;;;;;;10.10;5.00;;;;;;;;;;4987505;28;20121;-72
2023/07/22 00:25:46;;;;;;;7.00;4.43;;;;;;;;;;4989002;28;20031;-72
2023/07/22 00:28:12;;;;;;;8.07;3.80;;;;;;;;;;4987710;28;20394;-72
2023/07/22 00:30:38;;;;;;;8.77;4.22;;;;;;;;;;4991412;28;20061;-72
2023/07/22 00:33:05;;;;;;;6.97;4.32;;;;;;;;;;4988170;28;20125;-72
2023/07/22 00:35:31;;;;;;;7.95;3.65;;;;;;;;;;4988683;28;20022;-72
2023/07/22 00:37:58;;;;;;;8.90;4.10;;;;;;;;;;4994646;28;20098;-72
2023/07/22 00:40:24;;;;;;;6.63;3.35;;;;;;;;;;4992653;28;20037;-72
2023/07/22 00:42:50;;;;;;;13.20;4.05;;;;;;;;;;4990778;28;20442;-72
2023/07/22 00:45:16;;;;;;;7.25;3.75;;;;;;;;;;4999230;28;20038;-72
2023/07/22 00:47:42;;;;;;;7.60;3.88;;;;;;;;;;4991119;28;20437;-72
2023/07/22 00:50:08;;;;;;;9.00;4.15;;;;;;;;;;4988530;28;20479;-72
2023/07/22 00:52:35;;;;;;;6.07;3.55;;;;;;;;;;4982423;28;20045;-72
2023/07/22 00:55:01;;;;;;;9.60;3.50;;;;;;;;;;4992978;28;20483;-72
2023/07/22 00:57:27;;;;;;;5.97;3.33;;;;;;;;;;4994492;28;20053;-72
2023/07/22 00:59:53;;;;;;;5.55;2.83;;;;;;;;;;4987370;28;20034;-72
2023/07/22 01:02:20;;;;;;;6.40;3.53;;;;;;;;;;4988746;28;20141;-72
2023/07/22 01:04:46;;;;;;;6.53;3.50;;;;;;;;;;4989911;28;20030;-72
2023/07/22 01:07:13;;;;;;;9.55;3.83;;;;;;;;;;4988697;28;20088;-73
2023/07/22 01:09:42;;;;;;;7.68;3.72;;;;;;;;;;4989596;28;20038;-73
2023/07/22 01:12:09;;;;;;;11.85;3.83;;;;;;;;;;4989035;28;20403;-72
2023/07/22 01:14:38;;;;;;;7.75;3.70;;;;;;;;;;4992109;28;20141;-71
2023/07/22 01:17:05;;;;;;;6.40;3.40;;;;;;;;;;4998403;28;20116;-72
2023/07/22 01:19:31;;;;;;;5.55;3.08;;;;;;;;;;4988541;28;20046;-72
2023/07/22 01:22:01;;;;;;;12.73;4.32;;;;;;;;;;4987548;28;20145;-71
2023/07/22 01:24:28;;;;;;;5.95;3.60;;;;;;;;;;4985969;28;20522;-71
2023/07/22 01:26:55;;;;;;;8.05;3.60;;;;;;;;;;4987809;28;20026;-72
2023/07/22 01:29:22;;;;;;;10.20;4.28;;;;;;;;;;4988985;28;20057;-72
2023/07/22 01:31:48;;;;;;;6.47;3.78;;;;;;;;;;4993148;28;20033;-71
2023/07/22 01:34:14;;;;;;;6.47;3.97;;;;;;;;;;4988261;28;20046;-72
2023/07/22 01:36:40;;;;;;;8.13;3.75;;;;;;;;;;4969688;28;20457;-72
2023/07/22 01:39:07;;;;;;;6.95;3.45;;;;;;;;;;4990118;28;20023;-72
2023/07/22 01:41:33;;;;;;;4.95;3.20;;;;;;;;;;4992878;28;20053;-72
2023/07/22 01:43:59;;;;;;;4.68;2.95;;;;;;;;;;4989820;28;20404;-72
2023/07/22 01:46:26;;;;;;;7.78;3.60;;;;;;;;;;4986839;28;20064;-72
2023/07/22 01:48:52;;;;;;;6.90;3.67;;;;;;;;;;4987603;28;20034;-72
2023/07/22 01:51:18;;;;;;;4.88;3.40;;;;;;;;;;4989486;28;20038;-72
2023/07/22 01:53:44;;;;;;;8.82;3.50;;;;;;;;;;4985911;28;20042;-72
2023/07/22 01:56:10;;;;;;;6.05;2.97;;;;;;;;;;4987226;28;20488;-72
2023/07/22 01:58:36;;;;;;;4.55;3.30;;;;;;;;;;4997346;28;20038;-71
2023/07/22 02:01:02;;;;;;;4.15;3.25;;;;;;;;;;4986511;28;20034;-72
2023/07/22 02:03:28;;;;;;;6.90;3.67;;;;;;;;;;4991079;28;20125;-71
2023/07/22 02:06:01;;;;;;;6.25;3.60;;;;;;;;;;4990607;28;20026;-71
2023/07/22 02:08:27;;;;;;;6.25;3.05;;;;;;;;;;4988908;28;20480;-71
2023/07/22 02:10:53;;;;;;;6.07;3.85;;;;;;;;;;4995142;28;20034;-70
2023/07/22 02:13:19;;;;;;;4.65;3.50;;;;;;;;;;4988176;28;20090;-70
2023/07/22 02:15:46;;;;;;;9.10;3.35;;;;;;;;;;4983557;28;20054;-71
2023/07/22 02:18:12;;;;;;;6.38;2.97;;;;;;;;;;4984570;28;20034;-71
2023/07/22 02:20:38;;;;;;;6.32;3.45;;;;;;;;;;4984003;28;20046;-71
2023/07/22 02:23:04;;;;;;;4.93;3.00;;;;;;;;;;4991254;28;20045;-71
2023/07/22 02:25:30;;;;;;;7.55;3.17;;;;;;;;;;4983686;28;20058;-70
2023/07/22 02:27:56;;;;;;;5.43;3.67;;;;;;;;;;4987649;28;20030;-71
2023/07/22 02:30:22;;;;;;;5.95;3.47;;;;;;;;;;4990319;28;20085;-71
2023/07/22 02:32:48;;;;;;;4.15;3.03;;;;;;;;;;4987305;28;20420;-71
2023/07/22 02:35:14;;;;;;;8.07;3.60;;;;;;;;;;4995011;28;20081;-71
2023/07/22 02:37:40;;;;;;;6.30;3.53;;;;;;;;;;4986751;28;20090;-71
2023/07/22 02:40:11;;;;;;;7.97;3.30;;;;;;;;;;4995589;28;20034;-71
2023/07/22 02:42:37;;;;;;;5.88;2.92;;;;;;;;;;4993556;28;20033;-71
2023/07/22 02:45:04;;;;;;;8.40;3.83;;;;;;;;;;4988705;28;20037;-71
2023/07/22 02:47:30;;;;;;;11.48;3.75;;;;;;;;;;4990650;28;20022;-71
2023/07/22 02:49:56;;;;;;;4.50;2.85;;;;;;;;;;4989771;28;20456;-71
2023/07/22 02:52:22;;;;;;;7.30;3.78;;;;;;;;;;4991856;28;20049;-71
2023/07/22 02:55:05;;;;;;;6.88;3.85;;;;;;;;;;4994722;28;20052;-71
2023/07/22 02:57:31;;;;;;;9.15;3.45;;;;;;;;;;4990020;28;20056;-72
2023/07/22 02:59:57;;;;;;;6.05;3.55;;;;;;;;;;4989092;28;20424;-71
2023/07/22 03:02:23;;;;;;;7.13;3.65;;;;;;;;;;4995193;28;20147;-71
2023/07/22 03:04:49;;;;;;;6.88;3.25;;;;;;;;;;4990928;28;20474;-71
2023/07/22 03:07:15;;;;;;;7.63;3.15;;;;;;;;;;4994265;28;20042;-72
2023/07/22 03:09:41;;;;;;;5.20;2.92;;;;;;;;;;4987605;28;20033;-72
2023/07/22 03:12:08;;;;;;;5.68;3.55;;;;;;;;;;4997038;28;20416;-71
2023/07/22 03:14:36;;;;;;;4.95;3.30;;;;;;;;;;4993722;28;20089;-71
2023/07/22 03:17:03;;;;;;;5.57;3.35;;;;;;;;;;4997399;28;20050;-71
2023/07/22 03:19:29;;;;;;;6.82;3.63;;;;;;;;;;4982636;28;20403;-71
2023/07/22 03:21:55;;;;;;;6.40;3.65;;;;;;;;;;4983214;28;20034;-71
2023/07/22 03:24:21;;;;;;;6.22;4.25;;;;;;;;;;4987766;28;20094;-71
2023/07/22 03:26:47;;;;;;;8.38;5.97;;;;;;;;;;4982048;28;20035;-72
2023/07/22 03:29:13;;;;;;;7.45;4.22;;;;;;;;;;4990038;28;20497;-71
2023/07/22 03:31:39;;;;;;;6.95;4.15;;;;;;;;;;4990389;28;20038;-71
2023/07/22 03:34:05;;;;;;;8.98;5.05;;;;;;;;;;4990438;28;20485;-71
2023/07/22 03:36:34;;;;;;;7.50;4.75;;;;;;;;;;4991672;28;20038;-72
2023/07/22 03:39:00;;;;;;;9.77;5.47;;;;;;;;;;4983069;28;20090;-72
2023/07/22 03:41:26;;;;;;;7.60;4.93;;;;;;;;;;5007565;28;20510;-72
2023/07/22 03:43:52;;;;;;;8.57;4.20;;;;;;;;;;4987780;28;20081;-72
2023/07/22 03:46:18;;;;;;;9.32;4.88;;;;;;;;;;4993361;28;20030;-72
2023/07/22 03:48:44;;;;;;;15.20;5.13;;;;;;;;;;4982665;28;20101;-72
2023/07/22 03:51:10;;;;;;;8.32;5.20;;;;;;;;;;4984510;28;20065;-72
2023/07/22 03:53:36;;;;;;;10.57;5.30;;;;;;;;;;4985116;28;20488;-72
2023/07/22 03:56:02;;;;;;;8.60;4.50;;;;;;;;;;4985778;28;20041;-72
2023/07/22 03:58:28;;;;;;;10.02;5.43;;;;;;;;;;4994566;28;20388;-72
2023/07/22 04:00:54;;;;;;;10.68;5.70;;;;;;;;;;4988433;28;20956;-72
2023/07/22 04:03:20;;;;;;;12.90;6.50;;;;;;;;;;4989913;28;20175;-72
2023/07/22 04:05:54;;;;;;;9.60;5.60;;;;;;;;;;4986949;28;20432;-72
2023/07/22 04:08:20;;;;;;;9.48;5.80;;;;;;;;;;4999374;28;20066;-73
2023/07/22 04:10:54;;;;;;;9.90;6.28;;;;;;;;;;5003477;28;20096;-72
2023/07/22 04:13:20;;;;;;;8.75;5.65;;;;;;;;;;4987017;28;20034;-72
2023/07/22 04:15:49;;;;;;;10.00;6.45;;;;;;;;;;4988218;28;20041;-73
2023/07/22 04:18:19;;;;;;;11.95;6.32;;;;;;;;;;4993474;28;20386;-72
2023/07/22 04:20:45;;;;;;;13.10;6.60;;;;;;;;;;4987359;28;20097;-72
2023/07/22 04:23:12;;;;;;;14.90;7.50;;;;;;;;;;4987193;28;20074;-72
2023/07/22 04:25:47;;;;;;;12.80;7.03;;;;;;;;;;4988197;28;20093;-72
2023/07/22 04:28:13;;;;;;;9.80;5.88;;;;;;;;;;4989918;28;20035;-72
2023/07/22 04:30:39;;;;;;;13.98;6.45;;;;;;;;;;4990668;28;20045;-72
2023/07/22 04:33:05;;;;;;;14.90;6.72;;;;;;;;;;4988551;28;20033;-72
2023/07/22 04:35:37;;;;;;;14.98;7.28;;;;;;;;;;4990769;28;20045;-72
2023/07/22 04:38:03;;;;;;;11.48;7.25;;;;;;;;;;4988480;28;20054;-72
2023/07/22 04:40:30;;;;;;;9.60;6.55;;;;;;;;;;4993201;28;20034;-73
2023/07/22 04:42:56;;;;;;;12.88;6.80;;;;;;;;;;4990071;28;20031;-72
2023/07/22 04:45:23;;;;;;;14.18;7.00;;;;;;;;;;4990696;28;20041;-72
2023/07/22 04:47:52;;;;;;;12.75;7.28;;;;;;;;;;4991464;28;20835;-72
2023/07/22 04:50:19;;;;;;;12.80;6.90;;;;;;;;;;4984637;28;20042;-72
2023/07/22 04:52:46;;;;;;;10.60;6.90;;;;;;;;;;4986931;28;20372;-72
2023/07/22 04:55:12;;;;;;;15.13;6.50;;;;;;;;;;4991731;28;20042;-72
2023/07/22 04:57:40;;;;;;;14.13;7.50;;;;;;;;;;4993105;28;20290;-73
2023/07/22 05:00:09;;;;;;;15.02;6.85;;;;;;;;;;4985002;28;20050;-73
2023/07/22 05:02:35;;;;;;;13.95;6.75;;;;;;;;;;4990420;28;20427;-72
2023/07/22 05:05:01;;;;;;;13.43;7.63;;;;;;;;;;4990239;28;20034;-72
2023/07/22 05:07:27;;;;;;;13.65;7.72;;;;;;;;;;4981960;28;20097;-73
2023/07/22 05:09:53;;;;;;;14.52;8.43;;;;;;;;;;4980236;28;20093;-73
2023/07/22 05:12:19;;;;;;;11.82;7.75;;;;;;;;;;4977286;28;20062;-73
2023/07/22 05:14:46;;;;;;;10.95;7.90;;;;;;;;;;4978143;28;20054;-71
2023/07/22 05:17:12;;;;;;;14.85;8.07;;;;;;;;;;4984118;28;20034;-72
2023/07/22 05:19:38;;;;;;;14.27;8.73;;;;;;;;;;4977358;28;20145;-71
2023/07/22 05:22:04;;;;;;;17.67;8.13;;;;;;;;;;4979413;28;20031;-72
2023/07/22 05:24:30;;;;;;;14.23;8.68;;;;;;;;;;4983884;28;20460;-72
2023/07/22 05:26:56;;;;;;;14.75;8.45;;;;;;;;;;4970000;28;20034;-71
2023/07/22 05:29:22;;;;;;;13.55;8.32;;;;;;;;;;4977791;28;20096;-71
2023/07/22 05:31:48;;;;;;;19.17;9.35;;;;;;;;;;4983236;28;20514;-72
2023/07/22 05:34:14;;;;;;;16.98;8.55;;;;;;;;;;4977609;28;20048;-71
2023/07/22 05:36:40;;;;;;;15.65;9.23;;;;;;;;;;4978198;28;20031;-72
2023/07/22 05:39:07;;;;;;;15.45;8.98;;;;;;;;;;4981285;28;20030;-73
2023/07/22 05:41:36;;;;;;;15.43;10.07;;;;;;;;;;4984213;28;20031;-72
2023/07/22 05:44:02;;;;;;;18.20;9.35;;;;;;;;;;4989757;28;20034;-72
2023/07/22 05:46:28;;;;;;;19.27;9.88;;;;;;;;;;4992442;28;20066;-73
2023/07/22 05:48:54;;;;;;;18.50;8.73;;;;;;;;;;4986431;28;20042;-74
2023/07/22 05:51:20;;;;;;;16.80;10.00;;;;;;;;;;4987966;28;20034;-74
2023/07/22 05:53:46;;;;;;;21.83;10.43;;;;;;;;;;4977336;28;20058;-72
2023/07/22 05:56:12;;;;;;;15.05;9.57;;;;;;;;;;4978307;28;20034;-74
2023/07/22 05:58:38;;;;;;;16.15;9.82;;;;;;;;;;4989111;28;20039;-74
2023/07/22 06:01:05;;;;;;;17.45;11.10;;;;;;;;;;4996053;28;20113;-74
2023/07/22 06:03:31;;;;;;;20.85;10.80;;;;;;;;;;4982667;28;20026;-74
2023/07/22 06:05:57;;;;;;;17.27;10.05;;;;;;;;;;4989160;28;20027;-73
2023/07/22 06:08:23;;;;;;;18.02;11.48;;;;;;;;;;4980454;28;20061;-73
2023/07/22 06:10:50;;;;;;;18.90;9.68;;;;;;;;;;4988927;28;20109;-74
2023/07/22 06:13:16;;;;;;;14.85;9.20;;;;;;;;;;4984025;28;20480;-73
2023/07/22 06:15:42;;;;;;;18.17;10.95;;;;;;;;;;4960093;28;20069;-73
2023/07/22 06:18:08;;;;;;;15.80;10.15;;;;;;;;;;4977216;28;20045;-72
2023/07/22 06:20:35;;;;;;;23.98;11.85;;;;;;;;;;4979756;28;20097;-73
2023/07/22 06:23:02;;;;;;;18.83;10.95;;;;;;;;;;4980294;28;20026;-73
2023/07/22 06:25:28;;;;;;;17.48;10.60;;;;;;;;;;4979801;28;20122;-72
2023/07/22 06:27:54;;;;;;;18.60;10.75;;;;;;;;;;4973967;28;20062;-73
2023/07/22 06:30:20;;;;;;;21.92;11.60;;;;;;;;;;4980521;28;20045;-74
2023/07/22 06:32:46;;;;;;;22.50;14.40;;;;;;;;;;4979584;28;20038;-73
2023/07/22 06:35:12;;;;;;;18.52;10.63;;;;;;;;;;4991046;28;20045;-73
2023/07/22 06:37:40;;;;;;;20.52;11.35;;;;;;;;;;4975470;28;20582;-73
2023/07/22 06:40:06;;;;;;;19.92;11.15;;;;;;;;;;4983299;28;20034;-73
2023/07/22 06:42:32;;;;;;;20.25;12.05;;;;;;;;;;4989529;28;20096;-74
2023/07/22 06:44:58;;;;;;;20.95;12.23;;;;;;;;;;4971960;28;20034;-71
2023/07/22 06:47:24;;;;;;;17.58;11.02;;;;;;;;;;5005406;28;20033;-74
2023/07/22 06:49:53;;;;;;;21.40;11.65;;;;;;;;;;4982076;28;20034;-73
2023/07/22 06:52:19;;;;;;;15.95;10.63;;;;;;;;;;4991647;28;20550;-74
2023/07/22 06:54:45;;;;;;;21.08;11.25;;;;;;;;;;4971319;28;20038;-74
2023/07/22 06:57:11;;;;;;;21.40;10.90;;;;;;;;;;4974425;28;20368;-73
2023/07/22 06:59:38;;;;;;;18.20;11.35;;;;;;;;;;4983869;28;20027;-73
2023/07/22 07:02:04;;;;;;;17.83;10.95;;;;;;;;;;4988490;28;20516;-73
2023/07/22 07:04:30;;;;;;;19.85;11.02;;;;;;;;;;4979748;28;20528;-74
2023/07/22 07:06:56;;;;;;;18.40;11.48;;;;;;;;;;4991051;28;20069;-73
2023/07/22 07:09:22;;;;;;;18.10;10.68;;;;;;;;;;4987931;28;20478;-74
2023/07/22 07:11:49;;;;;;;14.98;10.02;;;;;;;;;;4991225;28;20038;-73
2023/07/22 07:14:15;;;;;;;13.98;9.70;;;;;;;;;;4990776;28;20054;-74
2023/07/22 07:16:41;;;;;;;14.48;10.35;;;;;;;;;;4995551;28;20108;-73
2023/07/22 07:19:07;;;;;;;13.18;8.82;;;;;;;;;;4982190;28;20417;-73
2023/07/22 07:21:33;;;;;;;14.77;9.45;;;;;;;;;;4982969;28;20137;-73
2023/07/22 07:23:59;;;;;;;12.50;8.57;;;;;;;;;;4991590;28;20480;-73
2023/07/22 07:26:25;;;;;;;16.83;9.75;;;;;;;;;;4992651;28;20502;-73
2023/07/22 07:28:51;;;;;;;13.20;9.02;;;;;;;;;;4986000;28;20077;-73
2023/07/22 07:31:18;;;;;;;13.30;8.50;;;;;;;;;;4997731;28;20441;-74
2023/07/22 07:33:44;;;;;;;14.05;8.65;;;;;;;;;;4981946;28;20034;-74
2023/07/22 07:36:10;;;;;;;12.48;7.85;;;;;;;;;;4984163;28;20038;-74
2023/07/22 07:38:36;;;;;;;10.98;8.00;;;;;;;;;;4981166;28;20101;-74
2023/07/22 07:41:11;;;;;;;10.43;8.20;;;;;;;;;;4990930;28;20376;-74
2023/07/22 07:43:37;;;;;;;10.93;8.18;;;;;;;;;;4989676;28;20053;-73
2023/07/22 07:46:12;;;;;;;12.57;7.72;;;;;;;;;;4980987;28;20035;-73
2023/07/22 07:48:38;;;;;;;11.88;8.20;;;;;;;;;;4989139;28;20106;-74
2023/07/22 07:51:04;;;;;;;13.27;8.52;;;;;;;;;;4989670;28;20069;-73
2023/07/22 07:53:31;;;;;;;15.77;10.82;;;;;;;;;;4988625;28;20049;-74
2023/07/22 07:55:57;;;;;;;21.35;13.15;;;;;;;;;;4989939;28;20034;-74
2023/07/22 07:58:23;;;;;;;19.92;11.20;;;;;;;;;;4993102;28;20038;-73
2023/07/22 08:00:49;;;;;;;21.75;12.57;;;;;;;;;;4999911;28;20032;-73
2023/07/22 08:03:15;;;;;;;18.85;12.32;;;;;;;;;;5012329;28;20483;-75
2023/07/22 08:05:41;;;;;;;18.02;11.85;;;;;;;;;;4993888;28;20065;-74
2023/07/22 08:08:07;;;;;;;16.52;11.88;;;;;;;;;;4988440;28;20077;-74
2023/07/22 08:10:33;;;;;;;18.20;11.38;;;;;;;;;;4983953;28;20372;-74
2023/07/22 08:12:59;;;;;;;17.95;10.75;;;;;;;;;;4991938;28;20084;-74
2023/07/22 08:15:25;;;;;;;16.73;10.30;;;;;;;;;;4994431;28;20051;-74
2023/07/22 08:17:51;;;;;;;14.73;10.35;;;;;;;;;;4987153;28;20097;-73
2023/07/22 08:20:17;;;;;;;15.55;10.60;;;;;;;;;;4992889;28;20484;-73
2023/07/22 08:22:43;;;;;;;16.67;10.85;;;;;;;;;;4993544;28;20041;-73
2023/07/22 08:25:09;;;;;;;14.23;10.90;;;;;;;;;;4965164;28;20093;-73
2023/07/22 08:27:35;;;;;;;15.43;10.30;;;;;;;;;;4982678;28;20042;-74
2023/07/22 08:30:01;;;;;;;19.38;10.23;;;;;;;;;;4991215;28;20030;-74
2023/07/22 08:32:27;;;;;;;18.33;11.32;;;;;;;;;;5011189;28;20037;-73
2023/07/22 08:34:53;;;;;;;22.15;10.43;;;;;;;;;;4996368;28;20129;-73
2023/07/22 08:37:19;;;;;;;18.48;11.45;;;;;;;;;;4988237;28;20077;-74
2023/07/22 08:39:45;;;;;;;22.50;11.93;;;;;;;;;;4978254;28;20062;-73
2023/07/22 08:42:12;;;;;;;19.75;13.02;;;;;;;;;;4977022;28;20468;-73
2023/07/22 08:44:39;;;;;;;20.48;12.80;;;;;;;;;;4987734;28;20484;-73
2023/07/22 08:47:05;;;;;;;22.65;12.55;;;;;;;;;;4992312;28;20380;-73
2023/07/22 08:49:32;;;;;;;20.50;10.50;;;;;;;;;;4991670;28;20030;-74
2023/07/22 08:51:58;;;;;;;16.23;10.95;;;;;;;;;;4989510;28;20052;-73
2023/07/22 08:54:24;;;;;;;17.02;10.18;;;;;;;;;;4997847;28;20078;-73
2023/07/22 08:56:51;;;;;;;16.92;9.52;;;;;;;;;;4990599;28;20045;-74
2023/07/22 08:59:20;;;;;;;13.82;9.00;;;;;;;;;;4993339;28;20432;-74
2023/07/22 09:01:48;;;;;;;13.75;8.20;;;;;;;;;;5004930;28;20026;-74
2023/07/22 09:04:14;;;;;;;12.05;8.75;;;;;;;;;;4989239;28;20067;-74
2023/07/22 09:06:42;;;;;;;14.25;8.15;;;;;;;;;;4973694;28;20459;-75
2023/07/22 09:09:09;;;;;;;13.50;9.85;;;;;;;;;;4974897;28;20471;-75
2023/07/22 09:11:35;;;;;;;13.60;8.85;;;;;;;;;;4978895;28;20031;-74
2023/07/22 09:14:04;;;;;;;15.48;9.80;;;;;;;;;;4994601;28;20030;-74
2023/07/22 09:16:31;;;;;;;17.92;10.65;;;;;;;;;;4988157;28;20033;-73
2023/07/22 09:19:00;;;;;;;19.88;10.00;;;;;;;;;;4980608;28;20030;-74
2023/07/22 09:21:27;;;;;;;14.05;9.13;;;;;;;;;;4983899;28;20178;-74
2023/07/22 09:23:54;;;;;;;14.82;9.75;;;;;;;;;;4974954;28;20038;-73
2023/07/22 09:26:20;;;;;;;18.88;10.38;;;;;;;;;;4987549;28;20038;-72
2023/07/22 09:28:49;;;;;;;15.93;9.98;;;;;;;;;;4987398;28;20037;-72
2023/07/22 09:31:16;;;;;;;13.85;8.95;;;;;;;;;;5001459;28;20088;-73
2023/07/22 09:33:42;;;;;;;12.93;9.00;;;;;;;;;;5010107;28;20370;-73
2023/07/22 09:36:11;;;;;;;11.18;7.32;;;;;;;;;;4980694;28;20471;-73
2023/07/22 09:38:37;;;;;;;13.63;8.48;;;;;;;;;;4983846;28;20033;-73
2023/07/22 09:41:03;;;;;;;14.32;7.68;;;;;;;;;;4991810;28;20383;-73
2023/07/22 09:43:30;;;;;;;10.18;6.38;;;;;;;;;;4986478;28;20089;-73
2023/07/22 09:45:56;;;;;;;11.85;6.70;;;;;;;;;;4980984;28;20034;-75
2023/07/22 09:48:22;;;;;;;5.65;4.75;;;;;;;;;;4972671;28;20038;-75
2023/07/22 09:50:58;;;;;;;7.28;4.32;;;;;;;;;;4976648;28;20038;-76
2023/07/22 09:53:24;;;;;;;5.78;4.05;;;;;;;;;;4977629;28;20469;-73
2023/07/22 09:55:53;;;;;;;5.78;3.70;;;;;;;;;;4978249;28;20038;-73
2023/07/22 09:58:19;;;;;;;9.45;4.07;;;;;;;;;;4988422;28;20037;-73
2023/07/22 10:00:51;;;;;;;6.15;3.28;;;;;;;;;;4972789;28;20034;-73
2023/07/22 10:03:19;;;;;;;3.95;2.85;;;;;;;;;;4981955;28;20030;-73
2023/07/22 10:05:46;;;;;;;5.15;3.22;;;;;;;;;;4982035;28;20034;-75
2023/07/22 10:08:13;;;;;;;4.07;3.10;;;;;;;;;;4981385;28;20022;-77
2023/07/22 10:10:39;;;;;;;4.95;3.42;;;;;;;;;;4981903;28;20504;-77
2023/07/22 10:13:05;;;;;;;4.00;2.75;;;;;;;;;;4986215;28;20037;-76
2023/07/22 10:15:35;;;;;;;3.83;2.78;;;;;;;;;;4984451;28;20153;-75
2023/07/22 10:18:02;;;;;;;7.65;2.95;;;;;;;;;;4985140;28;20346;-76
2023/07/22 10:20:29;;;;;;;4.57;3.30;;;;;;;;;;4988204;28;20076;-77
2023/07/22 10:22:56;;;;;;;4.78;3.35;;;;;;;;;;4984549;28;20030;-76
2023/07/22 10:25:23;;;;;;;5.10;3.70;;;;;;;;;;4985647;28;20523;-77
2023/07/22 10:27:50;;;;;;;5.38;3.42;;;;;;;;;;4984994;28;20043;-75
2023/07/22 10:30:17;;;;;;;8.05;3.63;;;;;;;;;;4988141;28;20083;-78
2023/07/22 10:32:44;;;;;;;6.20;3.97;;;;;;;;;;4988939;28;20027;-77
2023/07/22 10:35:11;;;;;;;5.55;3.60;;;;;;;;;;4979411;28;20035;-77
2023/07/22 10:37:39;;;;;;;4.22;3.83;;;;;;;;;;4975423;28;20090;-77
2023/07/22 10:40:28;;;;;;;7.65;4.38;;;17.70;99.90;;;;;;4980842;28;20113;-76
2023/07/22 10:42:58;;;;;;;4.50;3.70;;;;;;;;;;4987326;28;20026;-73
2023/07/22 10:45:28;;;;;;;5.10;4.10;;;;;;;;;;4989447;28;20037;-72
2023/07/22 10:48:05;;;;;;;4.65;3.92;;;;;;;;;;4988770;28;20085;-72
2023/07/22 10:50:44;;;;;;;4.53;4.05;;;;;;;;;;4983990;28;20101;-72
2023/07/22 10:53:13;;;;;;;4.85;4.07;;;;;;;;;;4989595;28;20109;-73
2023/07/22 10:56:24;;;;;;;4.65;3.78;;;17.70;99.90;;;;;;4986956;28;20476;-72
2023/07/22 10:58:50;;;;;;;6.45;4.63;;;;;;;;;;4993001;28;20022;-73
2023/07/22 11:01:25;;;;;;;138.85;107.80;;;;;;;;;;4987298;28;20403;-74
2023/07/22 11:04:07;;;;;;;6.10;4.70;;;;;;;;;;4985298;28;20069;-74
2023/07/22 11:06:33;;;;;;;5.85;4.70;;;;;;;;;;4986364;28;20023;-74
2023/07/22 11:08:59;;;;;;;6.40;4.90;;;;;;;;;;4981823;28;20022;-75
2023/07/22 11:11:38;;;;;;;10.27;5.43;;;;;;;;;;4984382;28;20038;-76
2023/07/22 11:14:18;;;;;;;6.40;4.72;;;;;;;;;;4981102;28;20385;-74
2023/07/22 11:16:45;;;;;;;11.05;6.65;;;;;;;;;;4986683;28;20138;-76
2023/07/22 11:19:12;;;;;;;12.93;6.40;;;;;;;;;;4986326;28;20027;-76
2023/07/22 11:21:39;;;;;;;10.98;7.22;;;;;;;;;;4986949;28;20058;-74
2023/07/22 11:24:05;;;;;;;10.90;6.72;;;;;;;;;;4981647;28;20130;-74
2023/07/22 11:26:32;;;;;;;8.30;6.00;;;;;;;;;;4985533;28;20033;-74
2023/07/22 11:28:58;;;;;;;9.10;6.47;;;;;;;;;;4985833;28;20091;-75
2023/07/22 11:31:31;;;;;;;13.38;7.00;;;;;;;;;;4986895;28;21559;-73
2023/07/22 11:33:57;;;;;;;7.18;5.93;;;;;;;;;;4987850;28;20066;-74
2023/07/22 11:36:23;;;;;;;12.68;6.85;;;;;;;;;;4984531;28;20023;-74
2023/07/22 11:38:49;;;;;;;10.23;6.43;;;;;;;;;;4991321;28;20066;-73
2023/07/22 11:41:15;;;;;;;10.05;6.97;;;;;;;;;;4982873;28;20586;-74
2023/07/22 11:43:41;;;;;;;9.77;7.70;;;;;;;;;;4990496;28;20041;-72
2023/07/22 11:46:07;;;;;;;10.98;7.22;;;;;;;;;;5000945;28;20547;-73
2023/07/22 11:48:33;;;;;;;8.35;6.90;;;;;;;;;;4998185;28;20043;-73
2023/07/22 11:51:00;;;;;;;11.27;7.15;;;;;;;;;;4982857;28;20495;-74
2023/07/22 11:53:29;;;;;;;11.82;7.47;;;;;;;;;;4971735;28;20133;-73
2023/07/22 11:55:56;;;;;;;9.43;6.78;;;;;;;;;;4992921;28;20445;-72
2023/07/22 11:58:28;;;;;;;11.13;7.70;;;;;;;;;;4981949;28;20081;-73
2023/07/22 12:01:04;;;;;;;10.43;7.40;;;;;;;;;;4988935;28;20045;-73
2023/07/22 12:03:34;;;;;;;10.30;8.93;;;;;;;;;;4975652;28;20034;-73
2023/07/22 12:06:04;;;;;;;8.38;6.68;;;;;;;;;;4988517;28;20472;-73
2023/07/22 12:08:30;;;;;;;8.77;7.05;;;;;;;;;;4986609;28;20146;-74
2023/07/22 12:10:56;;;;;;;12.05;8.13;;;;;;;;;;4981424;28;20039;-73
2023/07/22 12:13:22;;;;;;;13.23;8.55;;;;;;;;;;4993545;28;20423;-75
2023/07/22 12:16:07;;;;;;;11.50;7.93;;;;;;;;;;4987523;28;20042;-73
2023/07/22 12:18:45;;;;;;;13.50;8.02;;;;;;;;;;4976762;28;20023;-73
2023/07/22 12:21:12;;;;;;;11.05;7.78;;;;;;;;;;4983991;28;20042;-74
2023/07/22 12:23:38;;;;;;;9.68;7.47;;;;;;;;;;4987857;28;20031;-74
2023/07/22 12:26:05;;;;;;;11.02;8.75;;;;;;;;;;4991174;28;20108;-73
2023/07/22 12:28:31;;;;;;;9.50;7.65;;;;;;;;;;4985938;28;20036;-74
2023/07/22 12:30:57;;;;;;;11.52;7.60;;;;;;;;;;4994035;28;20044;-73
2023/07/22 12:33:26;;;;;;;10.15;8.05;;;;;;;;;;4985625;28;20034;-76
2023/07/22 12:35:57;;;;;;;9.65;8.40;;;;;;;;;;4979776;28;20525;-76
2023/07/22 12:38:23;;;;;;;11.35;8.75;;;;;;;;;;4981113;28;20145;-76
2023/07/22 12:40:49;;;;;;;12.65;7.97;;;;;;;;;;4983933;28;20456;-75
2023/07/22 12:43:15;;;;;;;9.65;7.82;;;;;;;;;;4996214;28;20042;-74
2023/07/22 12:45:41;;;;;;;11.75;7.00;;;;;;;;;;4986158;28;20046;-74
2023/07/22 12:48:07;;;;;;;10.13;6.88;;;;;;;;;;4988830;28;20118;-72
2023/07/22 12:50:33;;;;;;;11.55;6.97;;;;;;;;;;4989770;28;20719;-73
2023/07/22 12:53:00;;;;;;;7.80;6.68;;;;;;;;;;4992750;28;20023;-73
2023/07/22 12:55:26;;;;;;;9.30;6.55;;;;;;;;;;4987393;28;20041;-75
2023/07/22 12:57:52;;;;;;;8.60;6.18;;;;;;;;;;4986921;28;20037;-74
2023/07/22 13:00:18;;;;;;;11.73;6.45;;;;;;;;;;4980849;28;20030;-74
2023/07/22 13:02:44;;;;;;;11.27;6.93;;;;;;;;;;4983626;28;20043;-72
2023/07/22 13:05:10;;;;;;;7.95;6.45;;;;;;;;;;4987394;28;20490;-73
2023/07/22 13:07:37;;;;;;;9.98;6.35;;;;;;;;;;4987220;28;20054;-73
2023/07/22 13:10:06;;;;;;;15.23;7.93;;;;;;;;;;4989391;28;20081;-76
2023/07/22 13:12:32;;;;;;;7.40;6.25;;;;;;;;;;4983552;28;20467;-74
2023/07/22 13:14:58;;;;;;;7.78;6.07;;;;;;;;;;4982929;28;20050;-73
2023/07/22 13:17:24;;;;;;;10.38;6.07;;;;;;;;;;4982492;28;20041;-74
2023/07/22 13:19:50;;;;;;;13.23;6.90;;;;;;;;;;4986818;28;20030;-74
2023/07/22 13:22:16;;;;;;;9.75;6.38;;;;;;;;;;4988482;28;20535;-74
2023/07/22 13:24:42;;;;;;;11.50;7.57;;;;;;;;;;4986355;28;20472;-72
2023/07/22 13:27:08;;;;;;;11.30;6.82;;;;;;;;;;4984408;28;20058;-74
2023/07/22 13:29:34;;;;;;;10.27;7.40;;;;;;;;;;4983015;28;20022;-73
2023/07/22 13:32:00;;;;;;;12.10;7.50;;;;;;;;;;4993449;28;20038;-73
2023/07/22 13:34:26;;;;;;;13.30;7.15;;;;;;;;;;4981853;28;20472;-73
2023/07/22 13:36:52;;;;;;;8.10;3.05;;;;;;;;;;4984650;28;20023;-73
2023/07/22 13:39:19;;;;;;;7.53;3.05;;;;;;;;;;4989312;28;20106;-73
2023/07/22 13:41:45;;;;;;;5.70;2.17;;;;;;;;;;4975350;28;22110;-75
2023/07/22 13:44:11;;;;;;;6.03;1.70;;;;;;;;;;4984701;28;20042;-76
2023/07/22 13:46:37;;;;;;;6.85;2.10;;;;;;;;;;4982356;28;20052;-74
2023/07/22 13:49:03;;;;;;;4.75;1.80;;;;;;;;;;4983947;28;20044;-75
2023/07/22 13:51:29;;;;;;;6.35;1.77;;;;;;;;;;4978853;28;20042;-75
2023/07/22 13:53:57;;;;;;;4.22;1.63;;;;;;;;;;4983329;28;20042;-75
2023/07/22 13:56:23;;;;;;;4.93;2.10;;;;;;;;;;4980406;28;20030;-75
2023/07/22 13:58:49;;;;;;;5.78;1.98;;;;;;;;;;4962823;28;20392;-73
2023/07/22 14:01:15;;;;;;;6.15;2.20;;;;;;;;;;4977717;28;20046;-76
2023/07/22 14:03:41;;;;;;;4.22;2.38;;;;;;;;;;4978008;28;20031;-75
2023/07/22 14:06:08;;;;;;;6.50;2.80;;;;;;;;;;4964487;28;20037;-77
2023/07/22 14:08:34;;;;;;;6.22;2.85;;;;;;;;;;4984793;28;20045;-72
2023/07/22 14:11:00;;;;;;;5.40;2.90;;;;;;;;;;4988709;28;20148;-73
2023/07/22 14:13:26;;;;;;;7.63;3.40;;;;;;;;;;4975795;28;20040;-73
2023/07/22 14:15:52;;;;;;;6.10;2.83;;;;;;;;;;4985907;28;20038;-73
2023/07/22 14:18:19;;;;;;;7.82;3.15;;;;;;;;;;4974840;28;20125;-72
2023/07/22 14:20:45;;;;;;;10.40;3.67;;;;;;;;;;4991190;28;20050;-72
2023/07/22 14:23:11;;;;;;;5.93;3.38;;;;;;;;;;4979911;28;20027;-76
2023/07/22 14:25:37;;;;;;;8.80;4.47;;;;;;;;;;4979652;28;20389;-75
2023/07/22 14:28:04;;;;;;;4.72;3.00;;;;;;;;;;4986061;28;20476;-73
2023/07/22 14:30:30;;;;;;;5.93;3.40;;;;;;;;;;4989662;28;20062;-76
2023/07/22 14:32:56;;;;;;;4.25;3.05;;;;;;;;;;4978724;28;20069;-73